Time;durP1;ratioP1;P1;durP2;ratioP2;P2;SDS_P1;SDS_P2;PMS_P1;PMS_P2;Temp;Humidity;BMP_temperature;BMP_pressure;BME280_temperature;BME280_humidity;BME280_pressure;Samples;Min_cycle;Max_cycle;Signal;HPM_P1;HPM_P2
2022/09/06 00:01:50;;;;;;;8.30;5.13;;;19.40;1.00;;;;;;5046168;28;20497;-73
2022/09/06 00:04:16;;;;;;;12.60;4.73;;;19.50;1.00;;;;;;5045550;28;20197;-72
2022/09/06 00:06:41;;;;;;;10.03;4.70;;;19.50;1.00;;;;;;5046652;28;20173;-72
2022/09/06 00:09:07;;;;;;;8.87;4.10;;;19.40;1.00;;;;;;5048396;28;20177;-72
2022/09/06 00:11:32;;;;;;;8.93;5.10;;;19.40;1.00;;;;;;5044575;28;20223;-73
2022/09/06 00:13:58;;;;;;;10.60;5.40;;;19.40;1.00;;;;;;5049600;28;20269;-72
2022/09/06 00:16:23;;;;;;;9.47;5.70;;;19.40;1.00;;;;;;5046271;28;20220;-72
2022/09/06 00:18:53;;;;;;;9.30;5.43;;;19.30;1.00;;;;;;5052294;28;20192;-72
2022/09/06 00:21:27;;;;;;;11.37;5.53;;;19.30;1.00;;;;;;5047070;28;20493;-72
2022/09/06 00:23:53;;;;;;;15.03;5.63;;;19.30;1.00;;;;;;5042945;28;20789;-72
2022/09/06 00:26:20;;;;;;;10.43;5.70;;;19.30;1.00;;;;;;5039153;28;20455;-72
2022/09/06 00:28:46;;;;;;;9.37;6.00;;;19.30;1.00;;;;;;5039746;28;20247;-72
2022/09/06 00:31:17;;;;;;;11.63;6.20;;;19.40;1.00;;;;;;5043882;28;20411;-73
2022/09/06 00:33:43;;;;;;;12.73;6.00;;;19.40;1.00;;;;;;5048448;28;20438;-72
2022/09/06 00:36:09;;;;;;;7.97;5.10;;;19.40;1.00;;;;;;5048908;28;20446;-72
2022/09/06 00:38:35;;;;;;;8.50;4.43;;;19.50;1.00;;;;;;5043652;28;20240;-72
2022/09/06 00:41:02;;;;;;;5.53;4.40;;;19.60;1.00;;;;;;5050353;28;20419;-72
2022/09/06 00:43:27;;;;;;;7.03;4.10;;;19.60;1.00;;;;;;5047984;28;20929;-72
2022/09/06 00:45:53;;;;;;;7.33;4.10;;;19.50;1.00;;;;;;5052629;28;20486;-72
2022/09/06 00:48:20;;;;;;;8.23;4.30;;;19.60;1.00;;;;;;5052328;28;20177;-72
2022/09/06 00:50:48;;;;;;;5.40;3.87;;;19.70;1.00;;;;;;5051020;28;20177;-72
2022/09/06 00:53:14;;;;;;;6.00;3.83;;;19.70;1.00;;;;;;5047784;28;20474;-72
2022/09/06 00:55:41;;;;;;;8.13;3.77;;;19.70;1.00;;;;;;5036262;28;20455;-73
2022/09/06 00:58:08;;;;;;;6.70;3.97;;;19.60;1.00;;;;;;5050893;28;20419;-72
2022/09/06 01:00:34;;;;;;;10.13;4.00;;;19.70;1.00;;;;;;5048168;28;20427;-72
2022/09/06 01:03:00;;;;;;;6.87;4.00;;;19.60;1.00;;;;;;5050815;28;20521;-72
2022/09/06 01:05:40;;;;;;;7.30;4.00;;;19.60;1.00;;;;;;5046442;28;20338;-72
2022/09/06 01:08:23;;;;;;;6.50;3.87;;;19.60;1.00;;;;;;5043598;28;20542;-72
2022/09/06 01:11:07;;;;;;;9.73;3.83;;;19.60;1.00;;;;;;5051259;28;20400;-72
2022/09/06 01:13:51;;;;;;;7.80;4.27;;;19.50;1.00;;;;;;5043629;28;20496;-72
2022/09/06 01:16:39;;;;;;;6.57;3.80;;;19.50;1.00;;;;;;5041816;28;20794;-72
2022/09/06 01:19:34;;;;;;;8.17;4.43;;;19.50;1.00;;;;;;5031009;28;20550;-72
2022/09/06 01:22:35;;;;;;;7.93;4.10;;;19.40;1.00;;;;;;5049702;28;20400;-72
2022/09/06 01:25:32;;;;;;;7.40;4.60;;;19.40;1.00;;;;;;5045161;28;20477;-72
2022/09/06 01:28:31;;;;;;;7.50;3.90;;;19.40;1.00;;;;;;5050678;28;20419;-71
2022/09/06 01:31:03;;;;;;;5.50;3.93;;;19.40;1.00;;;;;;5046097;28;20500;-72
2022/09/06 01:33:44;;;;;;;5.80;4.33;;;19.40;1.00;;;;;;5050311;28;20430;-72
2022/09/06 01:36:15;;;;;;;7.07;4.20;;;19.40;1.00;;;;;;5048432;28;20955;-72
2022/09/06 01:38:40;;;;;;;5.40;4.27;;;19.50;1.00;;;;;;5049948;28;20455;-72
2022/09/06 01:41:06;;;;;;;8.70;4.50;;;19.50;1.00;;;;;;5035735;28;20423;-72
2022/09/06 01:43:36;;;;;;;7.23;4.33;;;19.40;1.00;;;;;;5046662;28;20181;-72
2022/09/06 01:46:13;;;;;;;7.97;4.57;;;19.60;1.00;;;;;;5037464;28;20196;-72
2022/09/06 01:48:54;;;;;;;6.70;4.40;;;19.90;1.00;;;;;;5049231;28;20778;-72
2022/09/06 01:51:56;;;;;;;6.23;4.23;;;20.10;1.00;;;;;;5046420;28;20861;-72
2022/09/06 01:54:50;;;;;;;7.70;4.37;;;20.30;1.00;;;;;;5026257;28;20534;-72
2022/09/06 01:57:24;;;;;;;7.67;4.67;;;20.40;1.00;;;;;;5047795;28;20485;-72
2022/09/06 01:59:58;;;;;;;12.60;4.57;;;20.50;1.00;;;;;;5048128;28;20463;-72
2022/09/06 02:02:46;;;;;;;9.10;4.80;;;20.50;1.00;;;;;;5050003;28;20403;-72
2022/09/06 02:05:15;;;;;;;5.00;4.10;;;20.50;1.00;;;;;;5048350;28;20554;-72
2022/09/06 02:07:43;;;;;;;5.50;4.10;;;20.50;1.00;;;;;;5050228;28;20403;-72
2022/09/06 02:10:34;;;;;;;5.60;4.53;;;20.50;1.00;;;;;;5039283;28;20957;-72
2022/09/06 02:13:03;;;;;;;7.87;4.67;;;20.50;1.00;;;;;;5039019;28;20912;-72
2022/09/06 02:15:32;;;;;;;7.40;4.83;;;20.50;1.00;;;;;;5032588;28;20448;-72
2022/09/06 02:18:22;;;;;;;8.53;5.30;;;20.60;1.00;;;;;;5048584;28;20423;-72
2022/09/06 02:20:52;;;;;;;7.93;5.13;;;20.50;1.00;;;;;;5041676;28;20478;-72
2022/09/06 02:23:22;;;;;;;8.27;5.13;;;20.20;1.00;;;;;;5049637;28;20404;-72
2022/09/06 02:25:54;;;;;;;10.00;5.63;;;19.80;1.00;;;;;;5043798;28;20859;-72
2022/09/06 02:28:20;;;;;;;10.53;5.40;;;19.50;1.00;;;;;;5046942;28;20463;-72
2022/09/06 02:30:54;;;;;;;7.13;5.30;;;19.20;1.00;;;;;;5048456;28;20489;-72
2022/09/06 02:33:22;;;;;;;7.93;6.00;;;19.10;1.00;;;;;;5042719;28;20795;-72
2022/09/06 02:35:51;;;;;;;11.50;6.07;;;19.00;1.00;;;;;;5047172;28;20463;-72
2022/09/06 02:38:19;;;;;;;8.57;5.60;;;17.90;1.00;;;;;;5042644;28;20472;-72
2022/09/06 02:40:46;;;;;;;10.47;5.50;;;18.90;1.00;;;;;;5040299;28;20923;-71
2022/09/06 02:43:12;;;;;;;8.00;5.97;;;18.90;1.00;;;;;;5044066;28;20463;-72
2022/09/06 02:45:38;;;;;;;7.50;5.97;;;19.00;1.00;;;;;;5040703;28;20803;-72
2022/09/06 02:48:03;;;;;;;8.53;5.83;;;19.10;1.00;;;;;;5045633;28;20186;-72
2022/09/06 02:50:29;;;;;;;7.20;5.70;;;19.20;1.00;;;;;;5045279;28;20193;-72
2022/09/06 02:53:07;;;;;;;6.47;5.70;;;19.30;1.00;;;;;;5046541;28;20177;-72
2022/09/06 02:55:33;;;;;;;12.70;6.50;;;19.30;1.00;;;;;;5042722;28;20671;-72
2022/09/06 02:57:59;;;;;;;12.57;5.83;;;19.20;1.00;;;;;;5045395;28;20506;-72
2022/09/06 03:00:26;;;;;;;8.00;6.23;;;19.20;1.00;;;;;;5044291;28;20207;-72
2022/09/06 03:02:51;;;;;;;12.77;6.37;;;19.20;1.00;;;;;;5047843;28;20476;-72
2022/09/06 03:05:17;;;;;;;7.33;6.07;;;19.20;1.00;;;;;;5042149;28;20435;-72
2022/09/06 03:07:43;;;;;;;6.60;5.77;;;;;;;;;;5031266;28;20200;-72
2022/09/06 03:10:09;;;;;;;6.13;5.53;;;19.00;1.00;;;;;;5041440;28;20184;-72
2022/09/06 03:12:34;;;;;;;10.37;6.20;;;19.00;1.00;;;;;;5048890;28;20635;-72
2022/09/06 03:15:00;;;;;;;9.77;6.27;;;18.90;1.00;;;;;;5042833;28;20204;-72
2022/09/06 03:17:25;;;;;;;9.53;6.13;;;18.80;1.00;;;;;;5033156;28;20178;-72
2022/09/06 03:19:51;;;;;;;10.93;7.00;;;18.80;1.00;;;;;;5048665;28;20193;-72
2022/09/06 03:22:16;;;;;;;9.57;6.23;;;18.80;1.00;;;;;;5045863;28;20223;-72
2022/09/06 03:24:42;;;;;;;10.93;5.93;;;18.60;1.00;;;;;;5046204;28;20195;-72
2022/09/06 03:27:07;;;;;;;7.40;6.60;;;18.60;1.00;;;;;;5038920;28;20177;-71
2022/09/06 03:29:33;;;;;;;13.93;6.73;;;18.70;1.00;;;;;;5043349;28;20173;-72
2022/09/06 03:31:58;;;;;;;8.60;6.60;;;19.60;1.80;;;;;;5047426;28;20189;-72
2022/09/06 03:34:24;;;;;;;8.87;6.57;;;18.50;3.80;;;;;;5046165;28;20177;-72
2022/09/06 03:36:49;;;;;;;7.83;6.80;;;18.50;7.00;;;;;;5046798;28;20169;-71
2022/09/06 03:39:15;;;;;;;9.87;6.87;;;18.40;8.90;;;;;;5047319;28;20334;-72
2022/09/06 03:41:40;;;;;;;8.80;6.77;;;18.30;7.70;;;;;;5046565;28;20173;-72
2022/09/06 03:44:06;;;;;;;9.17;7.10;;;18.20;10.80;;;;;;5036799;28;20777;-72
2022/09/06 03:46:31;;;;;;;12.50;7.20;;;18.10;11.90;;;;;;5038313;28;20683;-71
2022/09/06 03:48:57;;;;;;;11.93;6.73;;;18.10;12.60;;;;;;5047791;28;20173;-71
2022/09/06 03:51:23;;;;;;;7.53;6.70;;;18.20;10.80;;;;;;5047694;28;20187;-72
2022/09/06 03:53:49;;;;;;;9.10;6.47;;;;;;;;;;5046532;28;20432;-72
2022/09/06 03:56:15;;;;;;;9.23;6.57;;;18.10;8.90;;;;;;5045541;28;20231;-72
2022/09/06 03:58:40;;;;;;;8.57;6.40;;;18.10;12.00;;;;;;5048967;28;20460;-72
2022/09/06 04:01:09;;;;;;;9.70;6.23;;;18.00;12.50;;;;;;5046839;28;20271;-72
2022/09/06 04:03:35;;;;;;;7.40;6.03;;;18.00;13.30;;;;;;5052703;28;20640;-71
2022/09/06 04:06:01;;;;;;;7.97;6.40;;;18.00;10.80;;;;;;5049890;28;20435;-72
2022/09/06 04:08:27;;;;;;;12.47;6.27;;;18.00;8.90;;;;;;5047522;28;20469;-73
2022/09/06 04:10:54;;;;;;;6.97;6.27;;;18.10;10.90;;;;;;5051265;28;20419;-72
2022/09/06 04:13:20;;;;;;;13.60;6.17;;;18.00;10.30;;;;;;5046439;28;20495;-71
2022/09/06 04:15:47;;;;;;;7.87;6.20;;;17.90;10.60;;;;;;5050037;28;20950;-71
2022/09/06 04:18:13;;;;;;;7.70;5.83;;;17.80;8.90;;;;;;5052112;28;20403;-72
2022/09/06 04:20:39;;;;;;;7.50;5.70;;;17.80;10.60;;;;;;5047960;28;20428;-72
2022/09/06 04:23:05;;;;;;;7.70;5.67;;;17.80;9.00;;;;;;5052122;28;20408;-72
2022/09/06 04:25:30;;;;;;;7.30;5.67;;;17.80;7.80;;;;;;5039289;28;20683;-72
2022/09/06 04:27:56;;;;;;;7.30;5.50;;;17.90;1.30;;;;;;5045743;28;20181;-72
2022/09/06 04:30:21;;;;;;;6.20;5.60;;;18.00;1.00;;;;;;5052185;28;20169;-72
2022/09/06 04:32:47;;;;;;;7.10;5.43;;;18.00;6.00;;;;;;5046707;28;20306;-72
2022/09/06 04:35:13;;;;;;;9.20;5.80;;;18.00;3.90;;;;;;5051919;28;20197;-72
2022/09/06 04:37:38;;;;;;;8.33;5.73;;;17.90;4.40;;;;;;5049568;28;20199;-72
2022/09/06 04:40:04;;;;;;;6.80;5.50;;;17.90;7.60;;;;;;5047922;28;20228;-72
2022/09/06 04:42:30;;;;;;;10.40;6.20;;;18.00;11.00;;;;;;5049827;28;20631;-72
2022/09/06 04:44:55;;;;;;;9.27;6.20;;;17.70;14.30;;;;;;5049955;28;20523;-71
2022/09/06 04:47:21;;;;;;;14.90;6.40;;;17.60;17.30;;;;;;5048701;28;20218;-72
2022/09/06 04:49:48;;;;;;;7.00;5.70;;;17.40;20.40;;;;;;5046588;28;20181;-71
2022/09/06 04:52:14;;;;;;;6.20;5.50;;;17.60;21.50;;;;;;5048884;28;20729;-72
2022/09/06 04:54:39;;;;;;;10.20;5.80;;;17.60;20.70;;;;;;5039287;28;20459;-72
2022/09/06 04:57:05;;;;;;;9.57;5.93;;;17.50;19.70;;;;;;5048179;28;20181;-72
2022/09/06 04:59:31;;;;;;;11.93;6.30;;;17.50;19.40;;;;;;5046825;28;20296;-72
2022/09/06 05:01:57;;;;;;;7.33;5.80;;;17.40;18.60;;;;;;5050627;28;20490;-72
2022/09/06 05:04:22;;;;;;;7.60;5.60;;;17.40;18.30;;;;;;5047118;28;20604;-72
2022/09/06 05:06:48;;;;;;;11.90;6.00;;;17.40;18.40;;;;;;5049380;28;20231;-71
2022/09/06 05:09:14;;;;;;;10.47;6.20;;;17.30;19.10;;;;;;5039542;28;20185;-72
2022/09/06 05:11:39;;;;;;;7.57;5.63;;;17.30;19.20;;;;;;5044912;28;20181;-72
2022/09/06 05:14:05;;;;;;;7.77;5.93;;;17.30;20.80;;;;;;5037142;28;20278;-72
2022/09/06 05:16:30;;;;;;;16.03;6.30;;;17.30;19.50;;;;;;5031726;28;20205;-71
2022/09/06 05:18:56;;;;;;;13.03;5.47;;;17.30;19.60;;;;;;5045285;28;20205;-72
2022/09/06 05:21:21;;;;;;;7.90;5.87;;;17.30;21.70;;;;;;5047834;28;20178;-72
2022/09/06 05:23:47;;;;;;;11.23;6.13;;;17.40;21.20;;;;;;5042418;28;21761;-72
2022/09/06 05:26:13;;;;;;;6.90;6.07;;;17.40;21.60;;;;;;5040284;28;20197;-72
2022/09/06 05:28:38;;;;;;;13.37;7.10;;;17.00;23.30;;;;;;5046291;28;20556;-72
2022/09/06 05:31:09;;;;;;;7.83;6.17;;;17.60;24.60;;;;;;5043512;28;20188;-72
2022/09/06 05:33:35;;;;;;;10.07;7.13;;;17.70;23.70;;;;;;5041563;28;20259;-71
2022/09/06 05:36:03;;;;;;;10.80;7.37;;;17.90;21.20;;;;;;5049126;28;21017;-72
2022/09/06 05:38:28;;;;;;;9.80;7.87;;;17.90;20.80;;;;;;5046178;28;20452;-72
2022/09/06 05:40:54;;;;;;;10.40;7.23;;;18.00;22.20;;;;;;5044010;28;20430;-73
2022/09/06 05:43:19;;;;;;;10.17;6.80;;;18.00;15.40;;;;;;5045320;28;20177;-72
2022/09/06 05:45:45;;;;;;;8.93;6.23;;;18.10;11.80;;;;;;5049144;28;20197;-72
2022/09/06 05:48:10;;;;;;;9.40;6.00;;;18.20;10.30;;;;;;5036688;28;20181;-73
2022/09/06 05:50:36;;;;;;;6.27;5.53;;;18.30;5.60;;;;;;5046801;28;20177;-72
2022/09/06 05:53:01;;;;;;;9.60;6.33;;;18.60;1.90;;;;;;5046920;28;20180;-73
2022/09/06 05:55:27;;;;;;;12.20;6.20;;;18.80;1.00;;;;;;5040096;28;20565;-74
2022/09/06 05:57:52;;;;;;;12.57;6.00;;;18.80;1.00;;;;;;5034705;28;20677;-74
2022/09/06 06:00:18;;;;;;;10.50;6.17;;;18.80;1.00;;;;;;5047160;28;20193;-74
2022/09/06 06:02:49;;;;;;;8.50;5.73;;;18.90;1.00;;;;;;5042825;28;20549;-75
2022/09/06 06:05:15;;;;;;;7.30;5.67;;;18.90;1.00;;;;;;5030847;28;20189;-75
2022/09/06 06:07:41;;;;;;;7.30;6.50;;;18.90;1.00;;;;;;5034711;28;20785;-73
2022/09/06 06:10:07;;;;;;;7.93;5.97;;;19.00;1.00;;;;;;5046020;28;20481;-74
2022/09/06 06:12:32;;;;;;;11.60;6.37;;;19.10;1.00;;;;;;5043350;28;20190;-73
2022/09/06 06:14:58;;;;;;;10.17;6.30;;;19.20;1.00;;;;;;5031631;28;20761;-72
2022/09/06 06:17:23;;;;;;;9.17;6.60;;;19.30;1.00;;;;;;5039804;28;20667;-72
2022/09/06 06:19:49;;;;;;;10.60;6.17;;;19.40;1.00;;;;;;5057347;28;20207;-72
2022/09/06 06:22:15;;;;;;;8.87;6.40;;;19.40;1.00;;;;;;5045394;28;20188;-72
2022/09/06 06:24:40;;;;;;;9.53;6.60;;;19.40;1.00;;;;;;5042969;28;20734;-72
2022/09/06 06:27:06;;;;;;;10.30;6.20;;;19.40;1.00;;;;;;5041407;28;20273;-72
2022/09/06 06:29:31;;;;;;;9.00;6.67;;;19.50;1.00;;;;;;5041988;28;20181;-72
2022/09/06 06:31:57;;;;;;;8.47;5.97;;;19.50;1.00;;;;;;5038264;28;20177;-72
2022/09/06 06:34:22;;;;;;;9.03;6.27;;;19.60;1.00;;;;;;5039729;28;20197;-71
2022/09/06 06:36:48;;;;;;;10.60;6.17;;;19.60;1.00;;;;;;5053843;28;20184;-72
2022/09/06 06:39:13;;;;;;;9.50;6.30;;;19.70;1.00;;;;;;5041780;28;20356;-72
2022/09/06 06:41:39;;;;;;;15.77;7.17;;;19.90;1.00;;;;;;5045300;28;20173;-72
2022/09/06 06:44:05;;;;;;;8.57;6.10;;;;;;;;;;5038845;28;20177;-72
2022/09/06 06:46:34;;;;;;;9.67;6.37;;;20.20;1.00;;;;;;5049295;28;20811;-72
2022/09/06 06:48:59;;;;;;;9.33;6.13;;;20.50;1.00;;;;;;5044361;28;20450;-72
2022/09/06 06:51:27;;;;;;;8.10;6.17;;;20.80;1.00;;;;;;5040133;28;20431;-72
2022/09/06 06:53:55;;;;;;;9.23;6.70;;;21.00;1.00;;;;;;5050541;28;20303;-72
2022/09/06 06:56:31;;;;;;;9.13;6.20;;;21.20;1.00;;;;;;5050083;28;20455;-72
2022/09/06 06:59:00;;;;;;;8.80;6.63;;;21.50;1.00;;;;;;5046424;28;20498;-72
2022/09/06 07:01:27;;;;;;;12.70;6.17;;;21.70;1.00;;;;;;5038220;28;20439;-72
2022/09/06 07:03:53;;;;;;;10.63;6.23;;;21.80;1.00;;;;;;5047385;28;20976;-72
2022/09/06 07:06:19;;;;;;;7.80;5.90;;;22.00;1.00;;;;;;5051537;28;20442;-72
2022/09/06 07:08:46;;;;;;;7.40;5.83;;;22.10;1.00;;;;;;5042473;28;20440;-72
2022/09/06 07:11:13;;;;;;;11.03;6.10;;;22.40;1.00;;;;;;5033122;28;20468;-72
2022/09/06 07:13:39;;;;;;;9.73;5.67;;;22.50;1.00;;;;;;5042262;28;20902;-73
2022/09/06 07:16:10;;;;;;;7.90;5.40;;;22.80;1.00;;;;;;5042653;28;20462;-72
2022/09/06 07:18:42;;;;;;;9.17;5.80;;;23.00;1.00;;;;;;5038342;28;20201;-72
2022/09/06 07:21:10;;;;;;;8.40;5.40;;;22.90;1.00;;;;;;5028764;28;20436;-72
2022/09/06 07:23:35;;;;;;;7.80;5.43;;;23.00;1.00;;;;;;5045135;28;20411;-72
2022/09/06 07:26:01;;;;;;;8.60;5.20;;;22.90;1.00;;;;;;5043145;28;20932;-72
2022/09/06 07:28:26;;;;;;;5.90;5.10;;;23.10;1.00;;;;;;5037083;28;20208;-72
2022/09/06 07:30:53;;;;;;;6.57;4.80;;;24.10;1.00;;;;;;5035362;28;20204;-73
2022/09/06 07:33:19;;;;;;;13.00;5.43;;;25.10;1.00;;;;;;5052458;28;20560;-72
2022/09/06 07:35:59;;;;;;;8.40;5.13;;;25.90;1.00;;;;;;5041028;28;20447;-72
2022/09/06 07:38:26;;;;;;;7.10;4.93;;;25.70;1.00;;;;;;5037675;28;20191;-72
2022/09/06 07:40:57;;;;;;;6.67;4.70;;;25.20;1.00;;;;;;5048188;28;20515;-74
2022/09/06 07:43:24;;;;;;;8.93;4.97;;;25.00;1.00;;;;;;5053530;28;20434;-73
2022/09/06 07:46:16;;;;;;;10.20;5.13;;;24.80;1.00;;;;;;5042024;28;20490;-73
2022/09/06 07:48:45;;;;;;;10.37;5.03;;;24.60;1.00;;;;;;5044244;28;20420;-73
2022/09/06 07:51:21;;;;;;;8.90;5.40;;;24.50;1.00;;;;;;5042928;28;20434;-72
2022/09/06 07:53:52;;;;;;;6.23;4.70;;;24.40;1.00;;;;;;5056919;28;20434;-72
2022/09/06 07:56:20;;;;;;;8.73;5.23;;;24.40;1.00;;;;;;5041959;28;20442;-72
2022/09/06 07:58:46;;;;;;;6.07;4.87;;;24.30;1.00;;;;;;5046406;28;20462;-72
2022/09/06 08:01:31;;;;;;;7.77;5.07;;;24.40;1.00;;;;;;5042120;28;20523;-72
2022/09/06 08:03:58;;;;;;;7.77;5.27;;;24.60;1.00;;;;;;5046557;28;20496;-72
2022/09/06 08:06:25;;;;;;;7.60;5.20;;;24.70;1.00;;;;;;5060149;28;20426;-72
2022/09/06 08:08:51;;;;;;;6.03;4.70;;;24.80;1.00;;;;;;5044333;28;20439;-72
2022/09/06 08:11:17;;;;;;;7.77;4.47;;;25.10;1.00;;;;;;5048929;28;20422;-72
2022/09/06 08:13:43;;;;;;;7.43;4.70;;;26.20;1.00;;;;;;5040763;28;20435;-72
2022/09/06 08:16:10;;;;;;;5.90;4.60;;;28.20;1.00;;;;;;5046912;28;20568;-72
2022/09/06 08:18:36;;;;;;;7.18;4.40;;;30.30;1.00;;;;;;5044204;28;20204;-72
2022/09/06 08:21:22;;;;;;;6.88;4.10;;;32.00;1.00;;;;;;5036325;28;20188;-73
2022/09/06 08:24:02;;;;;;;7.43;3.90;;;33.20;1.00;;;;;;5046236;28;20193;-72
2022/09/06 08:26:29;;;;;;;5.97;3.40;;;34.00;1.00;;;;;;5038826;28;20209;-72
2022/09/06 08:28:58;;;;;;;6.30;3.83;;;34.60;1.00;;;;;;5044103;28;20196;-73
2022/09/06 08:31:25;;;;;;;4.65;3.60;;;35.30;1.00;;;;;;5043066;28;20188;-73
2022/09/06 08:33:51;;;;;;;6.00;3.58;;;35.20;1.00;;;;;;5042676;28;20242;-73
2022/09/06 08:36:17;;;;;;;4.47;3.42;;;34.90;1.00;;;;;;5044452;28;20220;-73
2022/09/06 08:38:44;;;;;;;5.32;3.85;;;34.40;1.00;;;;;;5038768;28;20204;-73
2022/09/06 08:41:13;;;;;;;6.07;4.25;;;34.40;1.00;;;;;;5050056;28;20209;-73
2022/09/06 08:43:47;;;;;;;5.63;3.92;;;34.90;1.00;;;;;;5051489;28;20724;-73
2022/09/06 08:46:16;;;;;;;7.47;3.80;;;34.80;1.00;;;;;;5062481;28;20175;-73
2022/09/06 08:48:42;;;;;;;8.82;4.10;;;34.60;1.00;;;;;;5034552;28;20185;-73
2022/09/06 08:51:07;;;;;;;6.75;4.20;;;35.20;1.00;;;;;;5031752;28;20694;-73
2022/09/06 08:53:41;;;;;;;6.53;4.00;;;35.70;1.00;;;;;;5030143;28;20173;-73
2022/09/06 08:56:40;;;;;;;10.07;3.80;;;35.80;1.00;;;;;;5030644;28;20189;-73
2022/09/06 08:59:11;;;;;;;8.68;4.05;;;36.10;1.00;;;;;;5042780;28;20342;-73
2022/09/06 09:01:56;;;;;;;6.78;3.97;;;36.10;1.00;;;;;;5049954;28;20242;-73
2022/09/06 09:04:25;;;;;;;6.68;4.00;;;36.80;1.00;;;;;;5051212;28;20234;-73
2022/09/06 09:06:57;;;;;;;4.35;3.42;;;36.80;1.00;;;;;;5048382;28;20688;-73
2022/09/06 09:09:22;;;;;;;10.25;3.92;;;36.70;1.00;;;;;;5050312;28;20195;-73
2022/09/06 09:11:49;;;;;;;5.45;4.00;;;37.40;1.00;;;;;;5049590;28;20260;-73
2022/09/06 09:14:24;;;;;;;7.68;4.00;;;37.20;1.00;;;;;;5056550;28;20233;-73
2022/09/06 09:16:52;;;;;;;10.40;4.43;;;37.70;1.00;;;;;;5053129;28;20175;-73
2022/09/06 09:19:17;;;;;;;6.13;3.80;;;38.30;1.00;;;;;;5051832;28;20197;-73
2022/09/06 09:21:43;;;;;;;6.38;3.70;;;38.30;1.00;;;;;;5051526;28;20161;-73
2022/09/06 09:24:13;;;;;;;4.88;3.88;;;38.20;1.00;;;;;;5051597;28;20168;-74
2022/09/06 09:26:56;;;;;;;7.30;4.07;;;38.70;1.00;;;;;;5051661;28;20176;-74
2022/09/06 09:29:22;;;;;;;4.75;3.63;;;38.70;1.00;;;;;;5052140;28;20272;-73
2022/09/06 09:31:51;;;;;;;5.75;4.72;;;38.80;1.00;;;;;;5051615;28;20204;-74
2022/09/06 09:34:32;;;;;;;5.05;3.80;;;39.30;1.00;;;;;;5051578;28;20238;-74
2022/09/06 09:37:23;;;;;;;7.60;4.13;;;39.60;1.00;;;;;;5051353;28;20198;-74
2022/09/06 09:39:52;;;;;;;7.85;3.78;;;39.90;1.00;;;;;;5051173;28;20270;-74
2022/09/06 09:42:29;;;;;;;5.65;4.00;;;40.50;1.00;;;;;;5051710;28;20611;-74
2022/09/06 09:44:56;;;;;;;9.43;4.00;;;40.60;1.00;;;;;;5058429;28;20607;-73
2022/09/06 09:47:32;;;;;;;9.32;4.03;;;40.60;1.00;;;;;;5064188;28;20263;-74
2022/09/06 09:49:58;;;;;;;9.98;3.85;;;40.20;1.00;;;;;;5055194;28;20187;-74
2022/09/06 09:52:26;;;;;;;5.70;3.97;;;40.10;1.00;;;;;;5050846;28;20223;-73
2022/09/06 09:54:56;;;;;;;5.47;4.07;;;40.50;1.00;;;;;;5050996;28;20572;-74
2022/09/06 09:57:22;;;;;;;5.78;4.40;;;38.80;1.00;;;;;;5051379;28;20165;-74
2022/09/06 09:59:52;;;;;;;6.25;4.60;;;38.00;1.00;;;;;;5049952;28;20595;-73
2022/09/06 10:02:22;;;;;;;6.32;4.20;;;37.90;1.00;;;;;;5050775;28;20244;-73
2022/09/06 10:04:50;;;;;;;8.23;4.30;;;37.60;1.00;;;;;;5051594;28;20185;-73
2022/09/06 10:07:24;;;;;;;5.15;4.05;;;37.40;1.00;;;;;;5051418;28;20259;-73
2022/09/06 10:10:06;;;;;;;8.70;4.78;;;37.50;1.00;;;;;;5051264;28;20164;-73
2022/09/06 10:12:35;;;;;;;7.78;4.45;;;37.30;1.00;;;;;;5049723;28;20193;-73
2022/09/06 10:15:01;;;;;;;9.15;4.63;;;37.40;1.00;;;;;;5059215;28;20193;-74
2022/09/06 10:17:30;;;;;;;6.43;4.50;;;37.60;1.00;;;;;;5066827;28;20543;-73
2022/09/06 10:20:09;;;;;;;5.82;4.57;;;36.70;1.00;;;;;;5070810;28;20192;-73
2022/09/06 10:22:53;;;;;;;7.15;4.03;;;36.90;1.00;;;;;;5069336;28;20580;-73
2022/09/06 10:25:37;;;;;;;9.60;5.10;;;38.40;1.00;;;;;;5071419;28;20619;-73
2022/09/06 10:28:29;;;;;;;9.10;4.45;;;38.50;1.00;;;;;;5055615;28;20194;-73
2022/09/06 10:31:06;;;;;;;6.15;4.15;;;38.00;1.00;;;;;;5051384;28;20172;-74
2022/09/06 10:33:44;;;;;;;6.60;4.60;;;37.90;1.00;;;;;;5050762;28;20318;-74
2022/09/06 10:36:09;;;;;;;6.40;4.68;;;38.40;1.00;;;;;;5031340;28;20197;-74
2022/09/06 10:38:59;;;;;;;8.68;4.70;;;38.40;1.00;;;;;;5029982;28;20207;-73
2022/09/06 10:41:33;;;;;;;7.40;4.90;;;38.90;1.00;;;;;;5031223;28;20170;-73
2022/09/06 10:44:07;;;;;;;7.30;4.43;;;40.20;1.00;;;;;;5036719;28;20187;-73
2022/09/06 10:46:34;;;;;;;6.18;4.50;;;41.20;1.00;;;;;;5062869;28;20183;-74
2022/09/06 10:49:00;;;;;;;8.73;4.53;;;41.30;1.00;;;;;;5070670;28;20168;-74
2022/09/06 10:51:44;;;;;;;8.23;4.18;;;39.40;1.00;;;;;;5070788;28;20179;-74
2022/09/06 10:54:15;;;;;;;7.53;4.10;;;39.60;1.00;;;;;;5070579;28;20665;-74
2022/09/06 10:56:52;;;;;;;8.70;4.40;;;40.10;1.00;;;;;;5070625;28;20179;-74
2022/09/06 10:59:23;;;;;;;6.03;4.15;;;41.50;1.00;;;;;;5069555;28;20206;-74
2022/09/06 11:01:56;;;;;;;12.88;4.20;;;42.00;1.00;;;;;;5070932;28;20160;-74
2022/09/06 11:04:28;;;;;;;8.90;4.30;;;41.60;1.00;;;;;;5070328;28;20668;-74
2022/09/06 11:06:59;;;;;;;10.25;4.32;;;41.70;1.00;;;;;;5070935;28;20264;-74
2022/09/06 11:09:44;;;;;;;6.28;3.97;;;42.70;1.00;;;;;;5056155;28;20169;-74
2022/09/06 11:12:49;;;;;;;7.88;4.15;;;43.70;1.00;;;;;;5044012;28;20177;-74
2022/09/06 11:15:17;;;;;;;8.73;4.40;;;42.40;1.00;;;;;;5055145;28;20208;-74
2022/09/06 11:18:04;;;;;;;5.57;3.80;;;40.90;1.00;;;;;;5044166;28;20188;-74
2022/09/06 11:20:42;;;;;;;11.90;4.40;;;41.10;1.00;;;;;;5050682;28;20586;-74
2022/09/06 11:23:16;;;;;;;8.75;4.45;;;42.10;1.00;;;;;;5049589;28;20160;-74
2022/09/06 11:26:04;;;;;;;13.10;4.25;;;43.00;1.00;;;;;;5049223;28;20261;-74
2022/09/06 11:28:38;;;;;;;6.45;3.75;;;43.40;1.00;;;;;;5050024;28;20184;-74
2022/09/06 11:31:05;;;;;;;8.15;4.00;;;44.30;1.00;;;;;;5050318;28;20592;-74
2022/09/06 11:33:38;;;;;;;10.10;3.95;;;43.70;1.00;;;;;;5048275;28;20203;-74
2022/09/06 11:36:28;;;;;;;10.30;4.00;;;43.70;1.00;;;;;;5031236;28;20559;-75
2022/09/06 11:39:00;;;;;;;7.72;3.97;;;43.60;1.00;;;;;;5034364;28;20769;-74
2022/09/06 11:41:35;;;;;;;6.82;3.90;;;44.00;1.00;;;;;;5041731;28;20180;-74
2022/09/06 11:44:02;;;;;;;8.32;3.70;;;44.20;1.00;;;;;;5041842;28;20172;-74
2022/09/06 11:46:33;;;;;;;8.48;3.05;;;44.30;1.00;;;;;;5039834;28;20193;-74
2022/09/06 11:49:09;;;;;;;5.22;2.50;;;44.00;1.00;;;;;;5043602;28;20724;-74
2022/09/06 11:51:40;;;;;;;6.30;3.03;;;43.90;1.00;;;;;;5041130;28;20616;-74
2022/09/06 11:54:18;;;;;;;12.15;3.15;;;43.90;1.00;;;;;;5040079;28;20238;-74
2022/09/06 11:57:01;;;;;;;3.70;2.78;;;43.20;1.00;;;;;;5047872;28;20294;-73
2022/09/06 11:59:30;;;;;;;11.50;3.17;;;43.90;1.00;;;;;;5050182;28;20224;-74
2022/09/06 12:02:02;;;;;;;5.05;2.70;;;44.50;1.00;;;;;;5050018;28;20216;-73
2022/09/06 12:04:59;;;;;;;8.82;3.00;;;44.70;1.00;;;;;;5049417;28;20765;-73
2022/09/06 12:07:26;;;;;;;6.43;2.90;;;43.40;1.00;;;;;;5050093;28;20516;-74
2022/09/06 12:09:51;;;;;;;6.20;2.33;;;43.50;1.00;;;;;;5053503;28;20187;-74
2022/09/06 12:12:47;;;;;;;6.57;2.30;;;43.80;1.00;;;;;;5052133;28;20172;-73
2022/09/06 12:15:31;;;;;;;6.82;2.78;;;42.70;1.00;;;;;;5061793;28;20628;-74
2022/09/06 12:17:58;;;;;;;6.03;2.70;;;44.00;1.00;;;;;;5053964;28;20508;-74
2022/09/06 12:20:53;;;;;;;6.28;2.50;;;45.40;1.00;;;;;;5053668;28;20210;-73
2022/09/06 12:23:33;;;;;;;6.93;2.63;;;46.20;1.00;;;;;;5051491;28;20175;-73
2022/09/06 12:26:03;;;;;;;6.57;2.70;;;45.20;1.00;;;;;;5053588;28;20614;-73
2022/09/06 12:28:33;;;;;;;11.20;2.88;;;45.00;1.00;;;;;;5049472;28;20180;-74
2022/09/06 12:30:59;;;;;;;5.22;2.30;;;44.70;1.00;;;;;;5053507;28;20250;-73
2022/09/06 12:33:31;;;;;;;5.75;2.85;;;45.30;1.00;;;;;;5052392;28;20168;-73
2022/09/06 12:36:39;;;;;;;6.38;3.05;;;45.90;1.00;;;;;;5053196;28;20279;-74
2022/09/06 12:39:10;;;;;;;5.97;2.70;;;44.50;1.00;;;;;;5048854;28;20208;-73
2022/09/06 12:41:40;;;;;;;5.95;3.00;;;44.60;1.00;;;;;;5051778;28;20259;-73
2022/09/06 12:44:06;;;;;;;8.68;3.30;;;45.00;1.00;;;;;;5056973;28;20217;-73
2022/09/06 12:46:32;;;;;;;7.65;2.72;;;45.40;1.00;;;;;;5064881;28;20691;-74
2022/09/06 12:49:08;;;;;;;5.70;2.95;;;45.50;1.00;;;;;;5052922;28;20177;-73
2022/09/06 12:51:35;;;;;;;6.70;2.78;;;46.10;1.00;;;;;;5052576;28;20179;-73
2022/09/06 12:54:22;;;;;;;7.22;2.80;;;45.80;1.00;;;;;;5052750;28;20238;-74
2022/09/06 12:56:49;;;;;;;6.55;2.33;;;45.20;1.00;;;;;;5051005;28;20659;-74
2022/09/06 12:59:20;;;;;;;7.20;2.78;;;45.80;1.00;;;;;;5053008;28;20207;-74
2022/09/06 13:01:55;;;;;;;6.13;2.72;;;45.60;1.00;;;;;;5053138;28;20173;-74
2022/09/06 13:04:27;;;;;;;4.72;2.55;;;44.90;1.00;;;;;;5052679;28;20224;-73
2022/09/06 13:06:54;;;;;;;6.32;2.55;;;45.40;1.00;;;;;;5051499;28;20177;-74
2022/09/06 13:09:22;;;;;;;8.18;2.63;;;45.80;1.00;;;;;;5050855;28;20264;-74
2022/09/06 13:11:52;;;;;;;4.28;2.45;;;46.00;1.00;;;;;;5052415;28;20165;-74
2022/09/06 13:14:24;;;;;;;6.22;2.60;;;44.50;1.00;;;;;;5056757;28;20186;-74